sensor_id;sensor_type;location;lat;lon;timestamp;pressure;altitude;pressure_sealevel;temperature;humidity
34065;BME280;20339;49.754;20.158;2023-09-19T00:00:59;96133.21;;;17.60;79.06
34065;BME280;20339;49.754;20.158;2023-09-19T00:03:42;96128.83;;;17.61;79.19
34065;BME280;20339;49.754;20.158;2023-09-19T00:06:10;96127.59;;;17.64;79.30
34065;BME280;20339;49.754;20.158;2023-09-19T00:08:40;96130.36;;;17.66;79.44
34065;BME280;20339;49.754;20.158;2023-09-19T00:11:14;96132.87;;;17.68;79.45
34065;BME280;20339;49.754;20.158;2023-09-19T00:13:42;96132.52;;;17.67;79.34
34065;BME280;20339;49.754;20.158;2023-09-19T00:16:11;96133.59;;;17.67;79.29
34065;BME280;20339;49.754;20.158;2023-09-19T00:18:40;96135.92;;;17.68;79.35
34065;BME280;20339;49.754;20.158;2023-09-19T00:21:12;96137.67;;;17.67;79.53
34065;BME280;20339;49.754;20.158;2023-09-19T00:23:40;96141.16;;;17.67;79.60
34065;BME280;20339;49.754;20.158;2023-09-19T00:26:11;96144.70;;;17.67;79.71
34065;BME280;20339;49.754;20.158;2023-09-19T00:28:40;96149.34;;;17.68;79.82
34065;BME280;20339;49.754;20.158;2023-09-19T00:31:09;96148.92;;;17.67;80.20
34065;BME280;20339;49.754;20.158;2023-09-19T00:33:38;96152.70;;;17.63;80.97
34065;BME280;20339;49.754;20.158;2023-09-19T00:36:11;96150.33;;;17.59;81.12
34065;BME280;20339;49.754;20.158;2023-09-19T00:38:39;96145.45;;;17.50;81.28
34065;BME280;20339;49.754;20.158;2023-09-19T00:41:07;96145.25;;;17.42;81.57
34065;BME280;20339;49.754;20.158;2023-09-19T00:43:36;96149.86;;;17.30;81.39
34065;BME280;20339;49.754;20.158;2023-09-19T00:46:04;96142.73;;;17.10;81.53
34065;BME280;20339;49.754;20.158;2023-09-19T00:48:40;96135.01;;;16.92;82.23
34065;BME280;20339;49.754;20.158;2023-09-19T00:51:11;96128.02;;;16.70;83.12
34065;BME280;20339;49.754;20.158;2023-09-19T00:53:41;96127.38;;;16.50;84.01
34065;BME280;20339;49.754;20.158;2023-09-19T00:56:13;96124.33;;;16.35;85.13
34065;BME280;20339;49.754;20.158;2023-09-19T00:58:43;96119.81;;;16.24;86.32
34065;BME280;20339;49.754;20.158;2023-09-19T01:01:12;96115.74;;;16.16;87.34
34065;BME280;20339;49.754;20.158;2023-09-19T01:03:46;96117.14;;;16.11;88.16
34065;BME280;20339;49.754;20.158;2023-09-19T01:06:14;96110.45;;;16.14;89.47
34065;BME280;20339;49.754;20.158;2023-09-19T01:08:46;96108.27;;;16.20;90.20
34065;BME280;20339;49.754;20.158;2023-09-19T01:11:20;96106.06;;;16.27;91.22
34065;BME280;20339;49.754;20.158;2023-09-19T01:14:11;96104.39;;;16.37;91.79
34065;BME280;20339;49.754;20.158;2023-09-19T01:16:46;96107.42;;;16.46;91.80
34065;BME280;20339;49.754;20.158;2023-09-19T01:22:29;96108.02;;;16.51;91.49
34065;BME280;20339;49.754;20.158;2023-09-19T01:25:28;96100.94;;;16.54;91.43
34065;BME280;20339;49.754;20.158;2023-09-19T01:28:30;96096.02;;;16.49;91.80
34065;BME280;20339;49.754;20.158;2023-09-19T01:31:06;96103.11;;;16.48;92.07
34065;BME280;20339;49.754;20.158;2023-09-19T01:34:00;96104.42;;;16.49;91.94
34065;BME280;20339;49.754;20.158;2023-09-19T01:36:31;96103.48;;;16.50;92.05
34065;BME280;20339;49.754;20.158;2023-09-19T01:39:05;96101.20;;;16.53;91.94
34065;BME280;20339;49.754;20.158;2023-09-19T01:41:48;96097.91;;;16.51;92.32
34065;BME280;20339;49.754;20.158;2023-09-19T01:44:24;96093.70;;;16.50;92.69
34065;BME280;20339;49.754;20.158;2023-09-19T01:46:55;96094.95;;;16.56;92.94
34065;BME280;20339;49.754;20.158;2023-09-19T01:49:33;96097.17;;;16.60;92.91
34065;BME280;20339;49.754;20.158;2023-09-19T01:52:11;96093.00;;;16.61;92.91
34065;BME280;20339;49.754;20.158;2023-09-19T01:54:46;96091.17;;;16.60;92.96
34065;BME280;20339;49.754;20.158;2023-09-19T01:57:26;96083.28;;;16.59;93.20
34065;BME280;20339;49.754;20.158;2023-09-19T02:00:03;96081.45;;;16.57;93.36
34065;BME280;20339;49.754;20.158;2023-09-19T02:02:36;96077.00;;;16.52;93.55
34065;BME280;20339;49.754;20.158;2023-09-19T02:05:07;96073.36;;;16.48;93.77
34065;BME280;20339;49.754;20.158;2023-09-19T02:07:39;96072.70;;;16.45;94.00
34065;BME280;20339;49.754;20.158;2023-09-19T02:10:11;96069.85;;;16.44;94.27
34065;BME280;20339;49.754;20.158;2023-09-19T02:12:40;96065.01;;;16.44;94.43
34065;BME280;20339;49.754;20.158;2023-09-19T02:15:11;96060.92;;;16.43;94.76
34065;BME280;20339;49.754;20.158;2023-09-19T02:17:40;96067.58;;;16.47;95.44
34065;BME280;20339;49.754;20.158;2023-09-19T02:20:11;96066.97;;;16.51;95.52
34065;BME280;20339;49.754;20.158;2023-09-19T02:22:42;96071.57;;;16.56;95.83
34065;BME280;20339;49.754;20.158;2023-09-19T02:25:19;96070.81;;;16.54;96.41
34065;BME280;20339;49.754;20.158;2023-09-19T02:27:47;96066.66;;;16.51;96.80
34065;BME280;20339;49.754;20.158;2023-09-19T02:30:16;96059.67;;;16.50;97.23
34065;BME280;20339;49.754;20.158;2023-09-19T02:32:47;96052.63;;;16.50;97.50
34065;BME280;20339;49.754;20.158;2023-09-19T02:35:17;96048.52;;;16.48;97.66
34065;BME280;20339;49.754;20.158;2023-09-19T02:37:47;96043.13;;;16.49;97.63
34065;BME280;20339;49.754;20.158;2023-09-19T02:40:16;96042.98;;;16.50;97.75
34065;BME280;20339;49.754;20.158;2023-09-19T02:42:55;96047.36;;;16.48;97.76
34065;BME280;20339;49.754;20.158;2023-09-19T02:45:24;96043.46;;;16.50;98.05
34065;BME280;20339;49.754;20.158;2023-09-19T02:47:53;96039.65;;;16.53;97.85
34065;BME280;20339;49.754;20.158;2023-09-19T02:50:21;96036.91;;;16.53;97.82
34065;BME280;20339;49.754;20.158;2023-09-19T02:52:49;96032.95;;;16.54;97.78
34065;BME280;20339;49.754;20.158;2023-09-19T02:55:19;96025.11;;;16.50;97.62
34065;BME280;20339;49.754;20.158;2023-09-19T02:57:50;96026.77;;;16.49;97.61
34065;BME280;20339;49.754;20.158;2023-09-19T03:00:20;96027.14;;;16.49;97.61
34065;BME280;20339;49.754;20.158;2023-09-19T03:02:54;96018.78;;;16.47;97.76
34065;BME280;20339;49.754;20.158;2023-09-19T03:05:30;96014.02;;;16.41;97.90
34065;BME280;20339;49.754;20.158;2023-09-19T03:08:04;96010.58;;;16.37;98.07
34065;BME280;20339;49.754;20.158;2023-09-19T03:10:44;96001.20;;;16.37;98.43
34065;BME280;20339;49.754;20.158;2023-09-19T03:13:15;95993.70;;;16.40;98.56
34065;BME280;20339;49.754;20.158;2023-09-19T03:16:06;95987.89;;;16.40;98.45
34065;BME280;20339;49.754;20.158;2023-09-19T03:18:35;95982.58;;;16.39;98.64
34065;BME280;20339;49.754;20.158;2023-09-19T03:21:10;95981.35;;;16.38;99.01
34065;BME280;20339;49.754;20.158;2023-09-19T03:23:56;95980.23;;;16.39;99.33
34065;BME280;20339;49.754;20.158;2023-09-19T03:26:25;95980.40;;;16.42;99.56
34065;BME280;20339;49.754;20.158;2023-09-19T03:29:13;95974.17;;;16.43;99.70
34065;BME280;20339;49.754;20.158;2023-09-19T03:31:46;95966.50;;;16.47;99.75
34065;BME280;20339;49.754;20.158;2023-09-19T03:34:15;95964.08;;;16.49;99.67
34065;BME280;20339;49.754;20.158;2023-09-19T03:36:44;95959.71;;;16.49;99.61
34065;BME280;20339;49.754;20.158;2023-09-19T03:39:13;95956.11;;;16.49;99.80
34065;BME280;20339;49.754;20.158;2023-09-19T03:41:48;95956.52;;;16.50;99.89
34065;BME280;20339;49.754;20.158;2023-09-19T03:44:18;95952.06;;;16.51;99.99
34065;BME280;20339;49.754;20.158;2023-09-19T03:46:47;95958.98;;;16.52;100.00
34065;BME280;20339;49.754;20.158;2023-09-19T03:49:19;95960.42;;;16.52;100.00
34065;BME280;20339;49.754;20.158;2023-09-19T03:51:48;95960.00;;;16.53;100.00
34065;BME280;20339;49.754;20.158;2023-09-19T03:54:16;95957.95;;;16.56;100.00
34065;BME280;20339;49.754;20.158;2023-09-19T03:56:53;95955.83;;;16.59;100.00
34065;BME280;20339;49.754;20.158;2023-09-19T03:59:21;95956.64;;;16.60;100.00
34065;BME280;20339;49.754;20.158;2023-09-19T04:01:53;95952.67;;;16.62;100.00
34065;BME280;20339;49.754;20.158;2023-09-19T04:04:28;95952.61;;;16.61;100.00
34065;BME280;20339;49.754;20.158;2023-09-19T04:06:57;95951.02;;;16.57;100.00
34065;BME280;20339;49.754;20.158;2023-09-19T04:09:25;95950.67;;;16.49;100.00
34065;BME280;20339;49.754;20.158;2023-09-19T04:11:59;95956.98;;;16.44;100.00
34065;BME280;20339;49.754;20.158;2023-09-19T04:14:34;95960.89;;;16.41;100.00
34065;BME280;20339;49.754;20.158;2023-09-19T04:17:03;95966.46;;;16.43;100.00
34065;BME280;20339;49.754;20.158;2023-09-19T04:19:40;95963.00;;;16.47;100.00
34065;BME280;20339;49.754;20.158;2023-09-19T04:22:14;95958.68;;;16.51;100.00
34065;BME280;20339;49.754;20.158;2023-09-19T04:24:43;95955.70;;;16.53;100.00
34065;BME280;20339;49.754;20.158;2023-09-19T04:27:14;95952.91;;;16.54;100.00
34065;BME280;20339;49.754;20.158;2023-09-19T04:29:43;95950.34;;;16.55;100.00
34065;BME280;20339;49.754;20.158;2023-09-19T04:32:21;95948.34;;;16.55;100.00
34065;BME280;20339;49.754;20.158;2023-09-19T04:34:49;95949.05;;;16.55;100.00
34065;BME280;20339;49.754;20.158;2023-09-19T04:37:22;95950.33;;;16.54;100.00
34065;BME280;20339;49.754;20.158;2023-09-19T04:39:50;95950.37;;;16.53;100.00
34065;BME280;20339;49.754;20.158;2023-09-19T04:42:24;95945.09;;;16.51;100.00
34065;BME280;20339;49.754;20.158;2023-09-19T04:44:54;95942.77;;;16.50;100.00
34065;BME280;20339;49.754;20.158;2023-09-19T04:47:39;95941.16;;;16.52;100.00
34065;BME280;20339;49.754;20.158;2023-09-19T04:50:19;95946.85;;;16.56;100.00
34065;BME280;20339;49.754;20.158;2023-09-19T04:52:55;95945.23;;;16.58;100.00
34065;BME280;20339;49.754;20.158;2023-09-19T04:55:32;95947.67;;;16.60;100.00
34065;BME280;20339;49.754;20.158;2023-09-19T04:58:03;95945.82;;;16.64;100.00
34065;BME280;20339;49.754;20.158;2023-09-19T05:00:34;95951.11;;;16.71;100.00
34065;BME280;20339;49.754;20.158;2023-09-19T05:03:06;95953.23;;;16.75;100.00
34065;BME280;20339;49.754;20.158;2023-09-19T05:05:37;95950.27;;;16.77;100.00
34065;BME280;20339;49.754;20.158;2023-09-19T05:08:11;95950.45;;;16.79;100.00
34065;BME280;20339;49.754;20.158;2023-09-19T05:10:42;95956.76;;;16.79;100.00
34065;BME280;20339;49.754;20.158;2023-09-19T05:13:19;95955.01;;;16.80;100.00
34065;BME280;20339;49.754;20.158;2023-09-19T05:15:55;95957.13;;;16.82;100.00
34065;BME280;20339;49.754;20.158;2023-09-19T05:18:33;95955.32;;;16.82;100.00
34065;BME280;20339;49.754;20.158;2023-09-19T05:21:08;95952.91;;;16.81;100.00
34065;BME280;20339;49.754;20.158;2023-09-19T05:23:38;95956.81;;;16.81;100.00
34065;BME280;20339;49.754;20.158;2023-09-19T05:26:11;95955.48;;;16.80;100.00
34065;BME280;20339;49.754;20.158;2023-09-19T05:28:40;95956.06;;;16.79;100.00
34065;BME280;20339;49.754;20.158;2023-09-19T05:31:18;95955.74;;;16.79;100.00
34065;BME280;20339;49.754;20.158;2023-09-19T05:34:04;95957.08;;;16.80;100.00
34065;BME280;20339;49.754;20.158;2023-09-19T05:36:41;95956.21;;;16.79;100.00
34065;BME280;20339;49.754;20.158;2023-09-19T05:39:16;95962.04;;;16.77;100.00
34065;BME280;20339;49.754;20.158;2023-09-19T05:41:45;95960.33;;;16.76;100.00
34065;BME280;20339;49.754;20.158;2023-09-19T05:44:26;95962.58;;;16.77;100.00
34065;BME280;20339;49.754;20.158;2023-09-19T05:47:06;95963.05;;;16.78;100.00
34065;BME280;20339;49.754;20.158;2023-09-19T05:49:43;95958.52;;;16.75;100.00
34065;BME280;20339;49.754;20.158;2023-09-19T05:52:19;95959.63;;;16.74;100.00
34065;BME280;20339;49.754;20.158;2023-09-19T05:54:56;95962.46;;;16.74;100.00
34065;BME280;20339;49.754;20.158;2023-09-19T05:57:25;95962.70;;;16.77;100.00
34065;BME280;20339;49.754;20.158;2023-09-19T06:02:40;95963.02;;;16.79;100.00
34065;BME280;20339;49.754;20.158;2023-09-19T06:05:10;95963.93;;;16.81;100.00
34065;BME280;20339;49.754;20.158;2023-09-19T06:07:43;95969.21;;;16.82;100.00
34065;BME280;20339;49.754;20.158;2023-09-19T06:10:12;95969.64;;;16.78;100.00
34065;BME280;20339;49.754;20.158;2023-09-19T06:12:50;95979.33;;;16.82;100.00
34065;BME280;20339;49.754;20.158;2023-09-19T06:15:28;95976.87;;;16.82;100.00
34065;BME280;20339;49.754;20.158;2023-09-19T06:18:04;95974.69;;;16.76;100.00
34065;BME280;20339;49.754;20.158;2023-09-19T06:20:56;95988.34;;;16.82;100.00
34065;BME280;20339;49.754;20.158;2023-09-19T06:23:35;95993.80;;;16.81;100.00
34065;BME280;20339;49.754;20.158;2023-09-19T06:26:24;95999.77;;;16.80;100.00
34065;BME280;20339;49.754;20.158;2023-09-19T06:29:00;96005.23;;;16.82;100.00
34065;BME280;20339;49.754;20.158;2023-09-19T06:31:38;96008.30;;;16.82;100.00
34065;BME280;20339;49.754;20.158;2023-09-19T06:34:07;96011.98;;;16.82;100.00
34065;BME280;20339;49.754;20.158;2023-09-19T06:36:44;96009.19;;;16.86;100.00
34065;BME280;20339;49.754;20.158;2023-09-19T06:39:13;96009.48;;;16.90;100.00
34065;BME280;20339;49.754;20.158;2023-09-19T06:41:50;96009.81;;;16.93;100.00
34065;BME280;20339;49.754;20.158;2023-09-19T06:44:24;96011.11;;;16.95;100.00
34065;BME280;20339;49.754;20.158;2023-09-19T06:47:01;96011.45;;;16.96;100.00
34065;BME280;20339;49.754;20.158;2023-09-19T06:49:37;96012.58;;;16.98;100.00
34065;BME280;20339;49.754;20.158;2023-09-19T06:52:26;96018.54;;;16.98;100.00
34065;BME280;20339;49.754;20.158;2023-09-19T06:54:55;96024.88;;;17.00;100.00
34065;BME280;20339;49.754;20.158;2023-09-19T06:57:35;96025.30;;;16.99;100.00
34065;BME280;20339;49.754;20.158;2023-09-19T07:00:14;96023.00;;;16.99;100.00
34065;BME280;20339;49.754;20.158;2023-09-19T07:03:02;96031.05;;;17.00;100.00
34065;BME280;20339;49.754;20.158;2023-09-19T07:05:41;96030.92;;;17.00;100.00
34065;BME280;20339;49.754;20.158;2023-09-19T07:08:30;96033.15;;;17.00;100.00
34065;BME280;20339;49.754;20.158;2023-09-19T07:10:59;96033.89;;;16.97;100.00
34065;BME280;20339;49.754;20.158;2023-09-19T07:13:34;96034.39;;;16.98;100.00
34065;BME280;20339;49.754;20.158;2023-09-19T07:16:03;96039.01;;;16.99;100.00
34065;BME280;20339;49.754;20.158;2023-09-19T07:18:41;96040.23;;;16.99;100.00
34065;BME280;20339;49.754;20.158;2023-09-19T07:21:29;96042.68;;;16.99;100.00
34065;BME280;20339;49.754;20.158;2023-09-19T07:24:05;96040.45;;;16.99;100.00
34065;BME280;20339;49.754;20.158;2023-09-19T07:26:42;96040.34;;;17.00;100.00
34065;BME280;20339;49.754;20.158;2023-09-19T07:29:18;96044.02;;;17.01;100.00
34065;BME280;20339;49.754;20.158;2023-09-19T07:31:55;96043.30;;;17.00;100.00
34065;BME280;20339;49.754;20.158;2023-09-19T07:34:24;96049.51;;;17.00;100.00
34065;BME280;20339;49.754;20.158;2023-09-19T07:37:01;96047.98;;;17.00;100.00
34065;BME280;20339;49.754;20.158;2023-09-19T07:39:51;96046.02;;;16.98;100.00
34065;BME280;20339;49.754;20.158;2023-09-19T07:42:26;96052.37;;;16.96;100.00
34065;BME280;20339;49.754;20.158;2023-09-19T07:44:58;96051.10;;;16.95;100.00
34065;BME280;20339;49.754;20.158;2023-09-19T07:47:32;96058.73;;;16.94;100.00
34065;BME280;20339;49.754;20.158;2023-09-19T07:50:03;96061.41;;;16.94;100.00
34065;BME280;20339;49.754;20.158;2023-09-19T07:52:42;96060.43;;;16.94;100.00
34065;BME280;20339;49.754;20.158;2023-09-19T07:55:16;96058.60;;;16.95;100.00
34065;BME280;20339;49.754;20.158;2023-09-19T07:57:56;96059.17;;;16.96;100.00
34065;BME280;20339;49.754;20.158;2023-09-19T08:00:26;96067.16;;;16.97;100.00
34065;BME280;20339;49.754;20.158;2023-09-19T08:03:02;96072.19;;;16.96;100.00
34065;BME280;20339;49.754;20.158;2023-09-19T08:05:42;96073.54;;;16.98;100.00
34065;BME280;20339;49.754;20.158;2023-09-19T08:08:19;96079.41;;;17.00;100.00
34065;BME280;20339;49.754;20.158;2023-09-19T08:10:55;96085.66;;;16.99;100.00
34065;BME280;20339;49.754;20.158;2023-09-19T08:13:41;96093.94;;;17.02;100.00
34065;BME280;20339;49.754;20.158;2023-09-19T08:16:11;96096.43;;;17.02;100.00
34065;BME280;20339;49.754;20.158;2023-09-19T08:18:41;96101.23;;;17.03;100.00
34065;BME280;20339;49.754;20.158;2023-09-19T08:21:17;96110.16;;;17.04;100.00
34065;BME280;20339;49.754;20.158;2023-09-19T08:24:12;96113.79;;;17.04;100.00
34065;BME280;20339;49.754;20.158;2023-09-19T08:26:52;96112.62;;;17.02;100.00
34065;BME280;20339;49.754;20.158;2023-09-19T08:29:30;96117.30;;;16.98;100.00
34065;BME280;20339;49.754;20.158;2023-09-19T08:32:03;96117.28;;;16.90;100.00
34065;BME280;20339;49.754;20.158;2023-09-19T08:34:38;96128.10;;;16.82;100.00
34065;BME280;20339;49.754;20.158;2023-09-19T08:37:21;96130.41;;;16.74;100.00
34065;BME280;20339;49.754;20.158;2023-09-19T08:39:55;96143.89;;;16.68;100.00
34065;BME280;20339;49.754;20.158;2023-09-19T08:42:41;96142.92;;;16.59;100.00
34065;BME280;20339;49.754;20.158;2023-09-19T08:45:17;96145.58;;;16.46;100.00
34065;BME280;20339;49.754;20.158;2023-09-19T08:47:59;96154.48;;;16.38;100.00
34065;BME280;20339;49.754;20.158;2023-09-19T08:50:30;96155.05;;;16.35;100.00
34065;BME280;20339;49.754;20.158;2023-09-19T08:53:11;96162.36;;;16.31;100.00
34065;BME280;20339;49.754;20.158;2023-09-19T08:55:50;96157.98;;;16.29;100.00
34065;BME280;20339;49.754;20.158;2023-09-19T08:58:44;96159.89;;;16.30;100.00
34065;BME280;20339;49.754;20.158;2023-09-19T09:01:32;96166.02;;;16.28;100.00
34065;BME280;20339;49.754;20.158;2023-09-19T09:04:12;96172.52;;;16.26;100.00
34065;BME280;20339;49.754;20.158;2023-09-19T09:06:41;96173.50;;;16.28;100.00
34065;BME280;20339;49.754;20.158;2023-09-19T09:09:19;96177.91;;;16.27;100.00
34065;BME280;20339;49.754;20.158;2023-09-19T09:11:53;96184.00;;;16.26;100.00
34065;BME280;20339;49.754;20.158;2023-09-19T09:14:29;96184.96;;;16.26;100.00
34065;BME280;20339;49.754;20.158;2023-09-19T09:19:48;96187.92;;;16.24;100.00
34065;BME280;20339;49.754;20.158;2023-09-19T09:22:21;96188.96;;;16.31;100.00
34065;BME280;20339;49.754;20.158;2023-09-19T09:25:00;96184.35;;;16.34;100.00
34065;BME280;20339;49.754;20.158;2023-09-19T09:28:01;96195.43;;;16.36;100.00
34065;BME280;20339;49.754;20.158;2023-09-19T09:30:43;96199.59;;;16.34;100.00
34065;BME280;20339;49.754;20.158;2023-09-19T09:33:28;96209.59;;;16.32;100.00
34065;BME280;20339;49.754;20.158;2023-09-19T09:35:59;96210.88;;;16.32;100.00
34065;BME280;20339;49.754;20.158;2023-09-19T09:42:03;96220.92;;;16.35;100.00
34065;BME280;20339;49.754;20.158;2023-09-19T09:44:37;96224.86;;;16.40;100.00
34065;BME280;20339;49.754;20.158;2023-09-19T09:47:45;96230.08;;;16.39;100.00
34065;BME280;20339;49.754;20.158;2023-09-19T09:50:29;96237.12;;;16.37;100.00
34065;BME280;20339;49.754;20.158;2023-09-19T09:53:21;96230.81;;;16.38;100.00
34065;BME280;20339;49.754;20.158;2023-09-19T09:56:08;96236.98;;;16.41;100.00
34065;BME280;20339;49.754;20.158;2023-09-19T09:58:38;96244.43;;;16.44;100.00
34065;BME280;20339;49.754;20.158;2023-09-19T10:01:19;96243.79;;;16.47;100.00
34065;BME280;20339;49.754;20.158;2023-09-19T10:03:51;96248.18;;;16.50;100.00
34065;BME280;20339;49.754;20.158;2023-09-19T10:06:24;96252.62;;;16.54;100.00
34065;BME280;20339;49.754;20.158;2023-09-19T10:09:00;96252.70;;;16.60;100.00
34065;BME280;20339;49.754;20.158;2023-09-19T10:11:44;96252.46;;;16.66;100.00
34065;BME280;20339;49.754;20.158;2023-09-19T10:14:15;96251.33;;;16.68;100.00
34065;BME280;20339;49.754;20.158;2023-09-19T10:16:47;96248.91;;;16.71;100.00
34065;BME280;20339;49.754;20.158;2023-09-19T10:19:23;96255.03;;;16.73;100.00
34065;BME280;20339;49.754;20.158;2023-09-19T10:21:59;96260.79;;;16.77;100.00
34065;BME280;20339;49.754;20.158;2023-09-19T10:24:29;96258.86;;;16.81;100.00
34065;BME280;20339;49.754;20.158;2023-09-19T10:27:00;96263.06;;;16.83;100.00
34065;BME280;20339;49.754;20.158;2023-09-19T10:29:32;96268.07;;;16.86;100.00
34065;BME280;20339;49.754;20.158;2023-09-19T10:32:06;96268.03;;;16.87;100.00
34065;BME280;20339;49.754;20.158;2023-09-19T10:34:36;96270.09;;;16.87;100.00
34065;BME280;20339;49.754;20.158;2023-09-19T10:37:13;96275.52;;;16.85;100.00
34065;BME280;20339;49.754;20.158;2023-09-19T10:39:46;96273.30;;;16.83;100.00
34065;BME280;20339;49.754;20.158;2023-09-19T10:42:19;96283.14;;;16.82;100.00
34065;BME280;20339;49.754;20.158;2023-09-19T10:44:51;96285.23;;;16.80;100.00
34065;BME280;20339;49.754;20.158;2023-09-19T10:47:21;96282.43;;;16.79;100.00
34065;BME280;20339;49.754;20.158;2023-09-19T10:49:52;96281.27;;;16.79;100.00
34065;BME280;20339;49.754;20.158;2023-09-19T10:52:23;96283.70;;;16.78;100.00
34065;BME280;20339;49.754;20.158;2023-09-19T10:54:55;96286.67;;;16.80;100.00
34065;BME280;20339;49.754;20.158;2023-09-19T10:57:26;96287.92;;;16.79;100.00
34065;BME280;20339;49.754;20.158;2023-09-19T11:00:03;96289.52;;;16.79;100.00
34065;BME280;20339;49.754;20.158;2023-09-19T11:03:20;96289.27;;;16.80;100.00
34065;BME280;20339;49.754;20.158;2023-09-19T11:06:05;96287.48;;;16.82;100.00
34065;BME280;20339;49.754;20.158;2023-09-19T11:08:56;96292.92;;;16.82;100.00
34065;BME280;20339;49.754;20.158;2023-09-19T11:11:42;96298.91;;;16.82;100.00
34065;BME280;20339;49.754;20.158;2023-09-19T11:17:40;96298.33;;;16.81;100.00
34065;BME280;20339;49.754;20.158;2023-09-19T11:20:23;96297.36;;;16.80;100.00
34065;BME280;20339;49.754;20.158;2023-09-19T11:23:32;96298.35;;;16.78;100.00
34065;BME280;20339;49.754;20.158;2023-09-19T11:26:05;96302.92;;;16.74;100.00
34065;BME280;20339;49.754;20.158;2023-09-19T11:29:27;96302.04;;;16.70;100.00
34065;BME280;20339;49.754;20.158;2023-09-19T11:31:57;96303.91;;;16.68;100.00
34065;BME280;20339;49.754;20.158;2023-09-19T11:34:46;96308.77;;;16.64;100.00
34065;BME280;20339;49.754;20.158;2023-09-19T11:40:31;96318.54;;;16.54;100.00
34065;BME280;20339;49.754;20.158;2023-09-19T11:43:34;96323.16;;;16.51;100.00
34065;BME280;20339;49.754;20.158;2023-09-19T11:46:11;96326.36;;;16.49;100.00
34065;BME280;20339;49.754;20.158;2023-09-19T11:48:46;96328.63;;;16.47;100.00
34065;BME280;20339;49.754;20.158;2023-09-19T11:51:22;96333.92;;;16.43;100.00
34065;BME280;20339;49.754;20.158;2023-09-19T11:53:58;96334.54;;;16.41;100.00
34065;BME280;20339;49.754;20.158;2023-09-19T11:56:31;96335.77;;;16.40;100.00
34065;BME280;20339;49.754;20.158;2023-09-19T11:59:09;96340.54;;;16.38;100.00
34065;BME280;20339;49.754;20.158;2023-09-19T12:01:43;96342.53;;;16.37;100.00
34065;BME280;20339;49.754;20.158;2023-09-19T12:04:40;96341.12;;;16.36;100.00
34065;BME280;20339;49.754;20.158;2023-09-19T12:07:12;96344.16;;;16.37;100.00
34065;BME280;20339;49.754;20.158;2023-09-19T12:09:44;96343.98;;;16.37;100.00
34065;BME280;20339;49.754;20.158;2023-09-19T12:12:24;96343.88;;;16.36;100.00
34065;BME280;20339;49.754;20.158;2023-09-19T12:14:55;96345.83;;;16.37;100.00
34065;BME280;20339;49.754;20.158;2023-09-19T12:17:38;96347.13;;;16.37;100.00
34065;BME280;20339;49.754;20.158;2023-09-19T12:20:11;96346.02;;;16.36;100.00
34065;BME280;20339;49.754;20.158;2023-09-19T12:22:42;96345.17;;;16.36;100.00
34065;BME280;20339;49.754;20.158;2023-09-19T12:25:13;96347.32;;;16.36;100.00
34065;BME280;20339;49.754;20.158;2023-09-19T12:27:46;96349.14;;;16.36;100.00
34065;BME280;20339;49.754;20.158;2023-09-19T12:30:15;96347.00;;;16.36;100.00
34065;BME280;20339;49.754;20.158;2023-09-19T12:32:48;96348.10;;;16.36;100.00
34065;BME280;20339;49.754;20.158;2023-09-19T12:35:28;96350.06;;;16.36;100.00
34065;BME280;20339;49.754;20.158;2023-09-19T12:38:03;96350.75;;;16.36;100.00
34065;BME280;20339;49.754;20.158;2023-09-19T12:40:34;96353.14;;;16.36;100.00
34065;BME280;20339;49.754;20.158;2023-09-19T12:43:06;96352.25;;;16.37;100.00
34065;BME280;20339;49.754;20.158;2023-09-19T12:45:37;96350.39;;;16.38;100.00
34065;BME280;20339;49.754;20.158;2023-09-19T12:48:22;96346.21;;;16.41;100.00
34065;BME280;20339;49.754;20.158;2023-09-19T12:51:04;96345.82;;;16.46;100.00
34065;BME280;20339;49.754;20.158;2023-09-19T12:53:39;96344.96;;;16.53;100.00
34065;BME280;20339;49.754;20.158;2023-09-19T12:56:09;96342.88;;;16.61;100.00
34065;BME280;20339;49.754;20.158;2023-09-19T12:58:53;96343.78;;;16.66;100.00
34065;BME280;20339;49.754;20.158;2023-09-19T13:01:26;96343.12;;;16.74;100.00
34065;BME280;20339;49.754;20.158;2023-09-19T13:04:17;96350.52;;;16.82;100.00
34065;BME280;20339;49.754;20.158;2023-09-19T13:06:54;96350.36;;;16.88;100.00
34065;BME280;20339;49.754;20.158;2023-09-19T13:09:23;96353.11;;;16.91;100.00
34065;BME280;20339;49.754;20.158;2023-09-19T13:12:00;96353.84;;;16.95;100.00
34065;BME280;20339;49.754;20.158;2023-09-19T13:14:31;96352.02;;;16.99;100.00
34065;BME280;20339;49.754;20.158;2023-09-19T13:17:03;96354.11;;;17.06;100.00
34065;BME280;20339;49.754;20.158;2023-09-19T13:19:41;96355.09;;;17.12;100.00
34065;BME280;20339;49.754;20.158;2023-09-19T13:22:38;96359.29;;;17.17;100.00
34065;BME280;20339;49.754;20.158;2023-09-19T13:25:09;96356.45;;;17.23;100.00
34065;BME280;20339;49.754;20.158;2023-09-19T13:27:43;96363.17;;;17.23;100.00
34065;BME280;20339;49.754;20.158;2023-09-19T13:30:14;96362.66;;;17.22;100.00
34065;BME280;20339;49.754;20.158;2023-09-19T13:32:43;96364.66;;;17.24;100.00
34065;BME280;20339;49.754;20.158;2023-09-19T13:35:13;96368.64;;;17.24;100.00
34065;BME280;20339;49.754;20.158;2023-09-19T13:37:42;96370.71;;;17.24;100.00
34065;BME280;20339;49.754;20.158;2023-09-19T13:40:17;96368.33;;;17.26;100.00
34065;BME280;20339;49.754;20.158;2023-09-19T13:42:50;96370.70;;;17.29;100.00
34065;BME280;20339;49.754;20.158;2023-09-19T13:45:22;96368.42;;;17.29;100.00